createdAt,value
2024-03-02T00:00:58.016Z,6.57
2024-03-02T00:03:26.470Z,6.77
2024-03-02T00:05:56.038Z,7.27
2024-03-02T00:08:27.558Z,6.87
2024-03-02T00:10:59.918Z,7.03
2024-03-02T00:13:28.497Z,7.20
2024-03-02T00:15:57.690Z,6.67
2024-03-02T00:18:28.355Z,6.30
2024-03-02T00:20:59.193Z,6.70
2024-03-02T00:23:32.027Z,7.00
2024-03-02T00:26:01.135Z,6.40
2024-03-02T00:28:31.444Z,6.33
2024-03-02T00:31:08.546Z,8.87
2024-03-02T00:33:38.423Z,7.60
2024-03-02T00:36:09.300Z,7.47
2024-03-02T00:38:46.479Z,8.00
2024-03-02T00:41:19.268Z,7.83
2024-03-02T00:43:51.791Z,8.43
2024-03-02T00:46:21.213Z,8.20
2024-03-02T00:48:59.213Z,7.70
2024-03-02T00:51:30.493Z,9.33
2024-03-02T00:54:02.071Z,7.77
2024-03-02T00:56:30.359Z,7.50
2024-03-02T00:58:58.905Z,7.30
2024-03-02T01:01:27.203Z,8.63
2024-03-02T01:03:55.901Z,9.30
2024-03-02T01:06:24.505Z,10.93
2024-03-02T01:08:54.183Z,9.30
2024-03-02T01:11:23.378Z,8.33
2024-03-02T01:13:53.091Z,10.53
2024-03-02T01:16:21.518Z,16.57
2024-03-02T01:18:50.051Z,10.00
2024-03-02T01:21:18.586Z,9.33
2024-03-02T01:23:46.868Z,10.03
2024-03-02T01:26:16.967Z,10.33
2024-03-02T01:28:45.114Z,9.00
2024-03-02T01:31:14.207Z,8.90
2024-03-02T01:33:42.688Z,9.87
2024-03-02T01:36:10.812Z,8.30
2024-03-02T01:38:38.936Z,9.17
2024-03-02T01:41:07.093Z,10.10
2024-03-02T01:43:39.446Z,8.93
2024-03-02T01:46:10.547Z,10.43
2024-03-02T01:48:38.808Z,10.23
2024-03-02T01:51:07.902Z,9.30
2024-03-02T01:53:36.613Z,10.57
2024-03-02T01:56:05.200Z,8.60
2024-03-02T01:58:33.409Z,11.27
2024-03-02T02:01:03.205Z,9.87
2024-03-02T02:03:31.626Z,9.53
2024-03-02T02:06:00.172Z,12.30
2024-03-02T02:08:28.297Z,10.23
2024-03-02T02:10:56.695Z,12.00
2024-03-02T02:13:25.352Z,10.00
2024-03-02T02:15:54.499Z,11.90
2024-03-02T02:18:24.437Z,11.27
2024-03-02T02:20:52.714Z,10.60
2024-03-02T02:23:22.185Z,10.87
2024-03-02T02:25:50.369Z,9.80
2024-03-02T02:28:18.616Z,11.90
2024-03-02T02:30:46.759Z,13.67
2024-03-02T02:33:15.116Z,9.67
2024-03-02T02:35:43.338Z,9.60
2024-03-02T02:38:11.501Z,14.53
2024-03-02T02:40:41.073Z,10.60
2024-03-02T02:43:09.270Z,9.73
2024-03-02T02:45:37.624Z,10.00
2024-03-02T02:48:07.105Z,9.93
2024-03-02T02:50:35.241Z,10.03
2024-03-02T02:53:03.411Z,9.07
2024-03-02T02:55:31.648Z,9.80
2024-03-02T02:58:01.340Z,10.57
2024-03-02T03:00:29.768Z,9.63
2024-03-02T03:02:58.061Z,8.10
2024-03-02T03:05:26.277Z,9.57
2024-03-02T03:07:54.555Z,10.20
2024-03-02T03:10:24.410Z,11.03
2024-03-02T03:12:53.008Z,9.83
2024-03-02T03:15:22.823Z,9.87
2024-03-02T03:17:52.074Z,9.73
2024-03-02T03:20:22.697Z,9.50
2024-03-02T03:22:51.117Z,12.00
2024-03-02T03:25:19.294Z,11.67
2024-03-02T03:27:47.594Z,10.63
2024-03-02T03:30:16.330Z,8.90
2024-03-02T03:32:46.227Z,9.97
2024-03-02T03:35:15.934Z,9.40
2024-03-02T03:37:44.097Z,8.37
2024-03-02T03:40:13.248Z,8.57
2024-03-02T03:42:41.761Z,9.90
2024-03-02T03:45:10.645Z,11.37
2024-03-02T03:47:38.878Z,10.10
2024-03-02T03:50:09.544Z,8.37
2024-03-02T03:52:37.807Z,8.37
2024-03-02T03:55:07.397Z,10.40
2024-03-02T03:57:36.102Z,10.17
2024-03-02T04:00:05.371Z,9.40
2024-03-02T04:02:33.662Z,10.93
2024-03-02T04:05:01.864Z,9.07
2024-03-02T04:07:31.414Z,9.37
2024-03-02T04:09:59.658Z,8.47
2024-03-02T04:12:27.880Z,8.37
2024-03-02T04:14:56.037Z,8.10
2024-03-02T04:17:24.129Z,7.80
2024-03-02T04:19:52.192Z,8.03
2024-03-02T04:22:25.132Z,8.93
2024-03-02T04:24:55.583Z,7.90
2024-03-02T04:27:23.837Z,7.77
2024-03-02T04:29:51.910Z,8.63
2024-03-02T04:32:20.900Z,8.10
2024-03-02T04:34:49.241Z,8.57
2024-03-02T04:37:17.366Z,9.13
2024-03-02T04:39:45.595Z,11.10
2024-03-02T04:42:15.350Z,8.90
2024-03-02T04:44:43.547Z,8.53
2024-03-02T04:47:11.706Z,8.63
2024-03-02T04:49:40.025Z,11.00
2024-03-02T04:52:08.357Z,9.43
2024-03-02T04:54:57.371Z,8.83
2024-03-02T04:57:25.982Z,8.77
2024-03-02T04:59:53.997Z,8.23
2024-03-02T05:02:22.167Z,8.20
2024-03-02T05:04:50.348Z,7.70
2024-03-02T05:07:18.572Z,8.23
2024-03-02T05:09:46.752Z,9.40
2024-03-02T05:12:36.349Z,8.27
2024-03-02T05:15:06.906Z,8.33
2024-03-02T05:17:35.136Z,7.40
2024-03-02T05:20:03.745Z,8.57
2024-03-02T05:22:31.837Z,8.90
2024-03-02T05:25:01.866Z,8.20
2024-03-02T05:27:30.091Z,7.63
2024-03-02T05:29:59.360Z,9.10
2024-03-02T05:32:28.990Z,7.63
2024-03-02T05:34:57.171Z,8.93
2024-03-02T05:37:25.438Z,8.60
2024-03-02T05:39:53.692Z,8.90
2024-03-02T05:42:21.937Z,8.87
2024-03-02T05:44:50.147Z,9.40
2024-03-02T05:47:18.636Z,8.23
2024-03-02T05:49:48.096Z,8.53
2024-03-02T05:52:16.290Z,8.77
2024-03-02T05:54:44.654Z,9.73
2024-03-02T05:57:33.106Z,9.50
2024-03-02T06:00:01.351Z,8.60
2024-03-02T06:02:29.595Z,8.30
2024-03-02T06:04:59.205Z,10.40
2024-03-02T06:07:27.228Z,9.33
2024-03-02T06:09:55.666Z,9.53
2024-03-02T06:12:24.085Z,9.47
2024-03-02T06:14:52.494Z,8.70
2024-03-02T06:17:21.028Z,11.30
2024-03-02T06:19:49.248Z,8.73
2024-03-02T06:22:20.276Z,8.40
2024-03-02T06:24:48.528Z,9.63
2024-03-02T06:27:16.665Z,9.43
2024-03-02T06:29:44.992Z,8.13
2024-03-02T06:32:13.133Z,11.00
2024-03-02T06:34:40.226Z,11.57
2024-03-02T06:37:08.430Z,9.67
2024-03-02T06:39:38.109Z,10.87
2024-03-02T06:42:06.880Z,9.30
2024-03-02T06:44:36.225Z,9.87
2024-03-02T06:47:05.392Z,9.10
2024-03-02T06:49:33.558Z,11.73
2024-03-02T06:52:01.715Z,9.40
2024-03-02T06:54:29.935Z,9.90
2024-03-02T06:56:59.468Z,9.27
2024-03-02T06:59:27.605Z,10.77
2024-03-02T07:01:55.759Z,8.73
2024-03-02T07:04:23.910Z,9.10
2024-03-02T07:06:52.217Z,10.37
2024-03-02T07:09:23.820Z,10.63
2024-03-02T07:11:52.489Z,9.20
2024-03-02T07:14:23.479Z,10.57
2024-03-02T07:16:51.692Z,9.83
2024-03-02T07:19:19.957Z,8.90
2024-03-02T07:21:48.310Z,9.87
2024-03-02T07:24:17.597Z,8.53
2024-03-02T07:29:16.801Z,11.77
2024-03-02T07:31:46.458Z,11.45
2024-03-02T07:34:14.633Z,10.10
2024-03-02T07:36:43.210Z,9.27
2024-03-02T07:39:11.873Z,7.90
2024-03-02T07:41:40.002Z,9.83
2024-03-02T07:44:08.500Z,7.83
2024-03-02T07:46:36.681Z,12.83
2024-03-02T07:49:06.452Z,9.67
2024-03-02T07:51:34.531Z,8.73
2024-03-02T07:54:02.652Z,11.37
2024-03-02T07:56:30.857Z,10.10
2024-03-02T07:59:02.102Z,8.57
2024-03-02T08:01:31.378Z,7.57
2024-03-02T08:03:59.854Z,8.87
2024-03-02T08:06:29.983Z,8.23
2024-03-02T08:08:59.001Z,8.60
2024-03-02T08:11:28.428Z,8.30
2024-03-02T08:13:56.771Z,8.13
2024-03-02T08:16:26.597Z,8.07
2024-03-02T08:18:55.105Z,7.17
2024-03-02T08:21:23.563Z,7.97
2024-03-02T08:23:53.353Z,7.17
2024-03-02T08:26:21.715Z,7.70
2024-03-02T08:28:49.890Z,7.33
2024-03-02T08:31:17.995Z,6.30
2024-03-02T08:33:46.169Z,6.70
2024-03-02T08:36:14.431Z,6.83
2024-03-02T08:38:42.717Z,6.57
2024-03-02T08:41:14.233Z,6.10
2024-03-02T08:43:43.761Z,5.90
2024-03-02T08:46:12.167Z,6.90
2024-03-02T08:48:40.364Z,6.82
2024-03-02T08:51:09.852Z,5.27
2024-03-02T08:53:38.712Z,5.57
2024-03-02T08:56:07.468Z,5.20
2024-03-02T08:58:37.162Z,5.27
2024-03-02T09:01:05.783Z,6.43
2024-03-02T09:03:34.988Z,5.23
2024-03-02T09:06:03.216Z,5.17
2024-03-02T09:08:31.416Z,5.33
2024-03-02T09:10:59.540Z,5.37
2024-03-02T09:13:27.687Z,5.67
2024-03-02T09:15:57.477Z,5.53
2024-03-02T09:18:25.763Z,4.53
2024-03-02T09:20:53.978Z,5.70
2024-03-02T09:23:22.797Z,6.40
2024-03-02T09:25:51.010Z,5.70
2024-03-02T09:28:19.545Z,4.83
2024-03-02T09:30:47.827Z,5.90
2024-03-02T09:33:17.960Z,4.37
2024-03-02T09:35:46.276Z,6.07
2024-03-02T09:38:14.930Z,3.83
2024-03-02T09:40:44.176Z,3.67
2024-03-02T09:43:12.701Z,3.80
2024-03-02T09:45:41.090Z,3.90
2024-03-02T09:48:10.105Z,4.90
2024-03-02T09:50:40.032Z,3.03
2024-03-02T09:53:10.047Z,3.43
2024-03-02T09:55:38.160Z,3.00
2024-03-02T09:58:06.525Z,4.40
2024-03-02T10:00:35.306Z,3.50
2024-03-02T10:03:03.706Z,3.10
2024-03-02T10:05:31.712Z,3.53
2024-03-02T10:08:05.045Z,2.87
2024-03-02T10:10:44.230Z,2.90
2024-03-02T10:13:13.924Z,2.20
2024-03-02T10:15:43.503Z,2.30
2024-03-02T10:18:13.473Z,2.20
2024-03-02T10:20:42.560Z,2.10
2024-03-02T10:23:17.363Z,2.10
2024-03-02T10:25:52.119Z,2.00
2024-03-02T10:28:26.248Z,1.80
2024-03-02T10:30:54.873Z,2.27
2024-03-02T10:33:23.200Z,1.73
2024-03-02T10:35:52.517Z,1.37
2024-03-02T10:38:22.276Z,1.83
2024-03-02T10:40:50.754Z,1.60
2024-03-02T10:43:21.150Z,1.70
2024-03-02T10:45:52.717Z,1.80
2024-03-02T10:48:22.654Z,1.50
2024-03-02T10:50:52.084Z,1.30
2024-03-02T10:53:21.605Z,2.70
2024-03-02T10:55:54.316Z,1.30
2024-03-02T10:58:22.914Z,1.10
2024-03-02T11:00:51.474Z,1.17
2024-03-02T11:03:20.422Z,1.27
2024-03-02T11:05:49.771Z,1.10
2024-03-02T11:08:22.391Z,0.90
2024-03-02T11:10:53.671Z,1.00
2024-03-02T11:13:27.083Z,1.13
2024-03-02T11:15:58.121Z,1.10
2024-03-02T11:18:27.101Z,1.00
2024-03-02T11:20:56.168Z,1.13
2024-03-02T11:23:34.868Z,0.90
2024-03-02T11:26:20.723Z,0.93
2024-03-02T11:28:49.540Z,0.90
2024-03-02T11:31:17.756Z,1.10
2024-03-02T11:33:46.006Z,1.40
2024-03-02T11:36:14.205Z,1.40
2024-03-02T11:38:46.671Z,0.90
2024-03-02T11:41:15.608Z,1.17
2024-03-02T11:43:46.715Z,1.57
2024-03-02T11:46:17.508Z,1.00
2024-03-02T11:48:45.615Z,1.10
2024-03-02T11:51:14.138Z,0.90
2024-03-02T11:53:45.126Z,1.17
2024-03-02T11:56:15.867Z,0.90
2024-03-02T11:58:44.827Z,1.10
2024-03-02T12:01:14.632Z,0.90
2024-03-02T12:03:43.183Z,1.03
2024-03-02T12:06:11.791Z,0.90
2024-03-02T12:08:40.804Z,1.03
2024-03-02T12:11:10.408Z,1.00
2024-03-02T12:13:38.524Z,0.80
2024-03-02T12:16:07.773Z,1.00
2024-03-02T12:18:37.140Z,0.90
2024-03-02T12:21:07.705Z,1.60
2024-03-02T12:23:36.553Z,1.30
2024-03-02T12:26:04.974Z,1.30
2024-03-02T12:28:35.986Z,0.90
2024-03-02T12:31:04.371Z,1.83
2024-03-02T12:33:32.788Z,1.00
2024-03-02T12:36:01.250Z,1.47
2024-03-02T12:38:30.631Z,1.13
2024-03-02T12:40:58.883Z,1.00
2024-03-02T12:43:31.519Z,1.00
2024-03-02T12:46:01.402Z,1.03
2024-03-02T12:48:29.951Z,1.00
2024-03-02T12:50:58.171Z,1.20
2024-03-02T12:53:26.403Z,1.10
2024-03-02T12:55:55.528Z,1.20
2024-03-02T12:58:25.213Z,1.20
2024-03-02T13:01:10.281Z,1.20
2024-03-02T13:03:39.853Z,0.80
2024-03-02T13:06:08.921Z,1.52
2024-03-02T13:08:37.335Z,1.20
2024-03-02T13:11:08.351Z,1.20
2024-03-02T13:13:36.782Z,0.90
2024-03-02T13:16:05.653Z,0.97
2024-03-02T13:18:36.017Z,1.30
2024-03-02T13:21:04.293Z,1.00
2024-03-02T13:23:32.841Z,1.43
2024-03-02T13:26:01.046Z,0.80
2024-03-02T13:28:29.394Z,0.97
2024-03-02T13:30:57.574Z,0.90
2024-03-02T13:33:25.869Z,0.90
2024-03-02T13:35:55.416Z,0.90
2024-03-02T13:38:23.734Z,1.53
2024-03-02T13:40:53.270Z,1.13
2024-03-02T13:43:21.552Z,0.80
2024-03-02T13:45:49.742Z,1.10
2024-03-02T13:48:17.898Z,0.83
2024-03-02T13:50:46.595Z,0.90
2024-03-02T13:53:16.033Z,1.00
2024-03-02T13:55:44.121Z,1.00
2024-03-02T13:58:13.151Z,0.90
2024-03-02T14:00:41.474Z,0.90
2024-03-02T14:03:09.740Z,0.93
2024-03-02T14:05:38.481Z,1.17
2024-03-02T14:08:06.994Z,1.10
2024-03-02T14:10:36.766Z,1.20
2024-03-02T14:13:05.136Z,1.23
2024-03-02T14:15:33.570Z,1.20
2024-03-02T14:18:01.790Z,1.10
2024-03-02T14:20:30.659Z,1.13
2024-03-02T14:23:00.305Z,1.00
2024-03-02T14:25:31.602Z,1.20
2024-03-02T14:28:25.843Z,1.23
2024-03-02T14:30:49.510Z,1.20
2024-03-02T14:33:17.893Z,1.10
2024-03-02T14:35:47.185Z,1.13
2024-03-02T14:38:16.542Z,2.00
2024-03-02T14:40:44.651Z,1.00
2024-03-02T14:43:14.277Z,1.37
2024-03-02T14:45:42.498Z,1.30
2024-03-02T14:48:10.654Z,1.27
2024-03-02T14:50:39.706Z,1.13
2024-03-02T14:53:08.380Z,1.80
2024-03-02T14:55:36.596Z,1.33
2024-03-02T14:58:04.984Z,2.13
2024-03-02T15:00:34.577Z,1.20
2024-03-02T15:03:02.857Z,1.07
2024-03-02T15:05:30.968Z,1.43
2024-03-02T15:08:00.494Z,1.17
2024-03-02T15:10:28.687Z,1.20
2024-03-02T15:12:56.892Z,1.27
2024-03-02T15:15:25.139Z,1.70
2024-03-02T15:17:54.710Z,1.40
2024-03-02T15:20:23.248Z,1.40
2024-03-02T15:22:51.501Z,1.33
2024-03-02T15:25:19.679Z,1.57
2024-03-02T15:27:47.886Z,1.50
2024-03-02T15:30:16.452Z,1.30
2024-03-02T15:32:44.594Z,2.70
2024-03-02T15:35:14.093Z,1.37
2024-03-02T15:37:42.192Z,1.40
2024-03-02T15:40:12.283Z,1.17
2024-03-02T15:42:40.813Z,1.17
2024-03-02T15:45:09.666Z,1.40
2024-03-02T15:47:38.165Z,1.53
2024-03-02T15:50:07.269Z,1.33
2024-03-02T15:52:36.801Z,1.20
2024-03-02T15:55:07.360Z,1.03
2024-03-02T15:57:36.427Z,1.20
2024-03-02T16:00:06.177Z,1.30
2024-03-02T16:02:34.371Z,1.10
2024-03-02T16:05:02.512Z,1.10
2024-03-02T16:07:30.715Z,1.60
2024-03-02T16:10:04.397Z,1.20
2024-03-02T16:12:32.594Z,1.20
2024-03-02T16:15:00.850Z,1.33
2024-03-02T16:17:28.918Z,1.43
2024-03-02T16:19:58.874Z,1.40
2024-03-02T16:22:27.031Z,1.60
2024-03-02T16:24:55.285Z,1.20
2024-03-02T16:27:25.734Z,1.40
2024-03-02T16:29:55.908Z,2.00
2024-03-02T16:32:24.064Z,1.90
2024-03-02T16:34:52.483Z,1.20
2024-03-02T16:37:21.553Z,1.30
2024-03-02T16:39:50.000Z,1.40
2024-03-02T16:42:21.050Z,1.60
2024-03-02T16:44:53.023Z,13.73
2024-03-02T16:47:21.196Z,1.20
2024-03-02T16:49:49.290Z,1.60
2024-03-02T16:52:18.132Z,1.10
2024-03-02T16:54:50.213Z,1.40
2024-03-02T16:57:19.132Z,1.40
2024-03-02T16:59:47.521Z,1.40
2024-03-02T17:02:17.162Z,1.80
2024-03-02T17:04:45.295Z,1.87
2024-03-02T17:07:13.670Z,1.27
2024-03-02T17:09:42.166Z,1.40
2024-03-02T17:12:10.578Z,1.37
2024-03-02T17:14:38.721Z,1.83
2024-03-02T17:17:06.978Z,1.60
2024-03-02T17:19:36.602Z,1.70
2024-03-02T17:22:04.968Z,1.60
2024-03-02T17:24:33.215Z,1.63
2024-03-02T17:27:01.365Z,1.50
2024-03-02T17:29:29.470Z,2.23
2024-03-02T17:31:57.982Z,1.73
2024-03-02T17:34:26.215Z,1.80
2024-03-02T17:36:55.780Z,2.00
2024-03-02T17:39:24.011Z,1.70
2024-03-02T17:41:52.376Z,2.43
2024-03-02T17:44:20.603Z,1.97
2024-03-02T17:46:48.753Z,2.90
2024-03-02T17:49:20.343Z,2.50
2024-03-02T17:51:49.020Z,2.23
2024-03-02T17:54:18.961Z,2.07
2024-03-02T17:56:47.114Z,2.73
2024-03-02T17:59:15.282Z,3.40
2024-03-02T18:01:43.444Z,2.70
2024-03-02T18:04:11.710Z,2.93
2024-03-02T18:06:39.839Z,3.00
2024-03-02T18:09:08.607Z,3.30
2024-03-02T18:11:38.237Z,3.53
2024-03-02T18:14:06.737Z,3.77
2024-03-02T18:16:35.216Z,7.00
2024-03-02T18:19:06.057Z,5.17
2024-03-02T18:21:35.145Z,6.47
2024-03-02T18:24:03.358Z,7.33
2024-03-02T18:26:34.140Z,7.13
2024-03-02T18:29:04.341Z,7.33
2024-03-02T18:31:32.772Z,8.23
2024-03-02T18:34:01.041Z,8.53
2024-03-02T18:36:29.269Z,9.27
2024-03-02T18:38:57.502Z,11.20
2024-03-02T18:41:25.981Z,14.20
2024-03-02T18:43:54.193Z,10.20
2024-03-02T18:46:23.828Z,12.13
2024-03-02T18:48:52.502Z,12.00
2024-03-02T18:51:23.188Z,11.20
2024-03-02T18:53:51.450Z,14.57
2024-03-02T18:56:19.940Z,13.47
2024-03-02T18:58:48.194Z,15.53
2024-03-02T19:01:17.332Z,14.37
2024-03-02T19:03:47.122Z,13.33
2024-03-02T19:06:18.571Z,14.10
2024-03-02T19:08:46.841Z,15.20
2024-03-02T19:11:16.134Z,16.27
2024-03-02T19:13:45.839Z,16.13
2024-03-02T19:16:14.377Z,15.30
2024-03-02T19:18:43.455Z,15.03
2024-03-02T19:21:13.119Z,18.03
2024-03-02T19:23:45.062Z,15.60
2024-03-02T19:26:19.775Z,15.60
2024-03-02T19:28:49.581Z,18.87
2024-03-02T19:31:18.039Z,15.53
2024-03-02T19:33:46.788Z,17.50
2024-03-02T19:36:16.383Z,19.43
2024-03-02T19:38:44.687Z,17.40
2024-03-02T19:41:12.899Z,16.30
2024-03-02T19:43:41.044Z,14.77
2024-03-02T19:46:09.398Z,16.23
2024-03-02T19:48:37.715Z,16.57
2024-03-02T19:51:06.151Z,15.13
2024-03-02T19:53:35.626Z,15.47
2024-03-02T19:56:03.778Z,17.13
2024-03-02T19:58:33.283Z,17.10
2024-03-02T20:01:01.511Z,19.10
2024-03-02T20:03:29.815Z,18.87
2024-03-02T20:05:57.989Z,20.70
2024-03-02T20:08:27.478Z,20.27
2024-03-02T20:10:57.251Z,19.33
2024-03-02T20:13:25.648Z,17.50
2024-03-02T20:15:53.917Z,14.80
2024-03-02T20:18:22.224Z,17.47
2024-03-02T20:20:50.393Z,20.00
2024-03-02T20:23:18.633Z,13.13
2024-03-02T20:25:46.780Z,17.57
2024-03-02T20:28:18.214Z,19.83
2024-03-02T20:30:46.557Z,17.90
2024-03-02T20:33:14.853Z,17.23
2024-03-02T20:35:43.120Z,15.00
2024-03-02T20:38:11.434Z,15.63
2024-03-02T20:40:39.699Z,24.03
2024-03-02T20:43:07.981Z,14.20
2024-03-02T20:45:37.681Z,17.00
2024-03-02T20:48:06.372Z,18.63
2024-03-02T20:50:34.726Z,17.00
2024-03-02T20:53:08.004Z,17.27
2024-03-02T20:55:37.372Z,18.80
2024-03-02T20:58:06.049Z,17.70
2024-03-02T21:00:34.346Z,18.53
2024-03-02T21:03:04.053Z,17.50
2024-03-02T21:05:32.454Z,25.13
2024-03-02T21:08:02.245Z,15.53
2024-03-02T21:10:30.422Z,18.63
2024-03-02T21:13:00.042Z,16.50
2024-03-02T21:15:28.375Z,17.73
2024-03-02T21:17:56.548Z,19.37
2024-03-02T21:20:26.402Z,19.60
2024-03-02T21:22:53.601Z,17.77
2024-03-02T21:25:22.012Z,19.33
2024-03-02T21:27:50.504Z,19.40
2024-03-02T21:30:19.720Z,19.03
2024-03-02T21:32:49.673Z,18.80
2024-03-02T21:35:18.032Z,18.53
2024-03-02T21:37:47.751Z,19.40
2024-03-02T21:40:17.739Z,17.30
2024-03-02T21:42:46.125Z,20.37
2024-03-02T21:45:15.390Z,17.13
2024-03-02T21:47:43.864Z,17.57
2024-03-02T21:50:12.975Z,20.10
2024-03-02T21:52:41.258Z,21.50
2024-03-02T21:55:12.032Z,18.90
2024-03-02T21:57:41.155Z,24.57
2024-03-02T22:00:10.878Z,18.73
2024-03-02T22:02:39.176Z,16.93
2024-03-02T22:05:08.315Z,21.53
2024-03-02T22:07:36.588Z,18.70
2024-03-02T22:10:05.919Z,19.93
2024-03-02T22:12:35.574Z,18.30
2024-03-02T22:15:04.149Z,18.50
2024-03-02T22:17:32.400Z,24.23
2024-03-02T22:20:00.772Z,21.07
2024-03-02T22:22:28.993Z,20.37
2024-03-02T22:24:57.253Z,23.13
2024-03-02T22:27:25.371Z,18.57
2024-03-02T22:29:54.984Z,22.40
2024-03-02T22:32:23.146Z,23.53
2024-03-02T22:34:51.271Z,22.40
2024-03-02T22:37:21.060Z,20.10
2024-03-02T22:39:49.328Z,18.37
2024-03-02T22:42:17.572Z,22.90
2024-03-02T22:44:45.711Z,17.67
2024-03-02T22:47:15.233Z,21.40
2024-03-02T22:49:43.401Z,18.80
2024-03-02T22:52:11.530Z,19.87
2024-03-02T22:54:39.729Z,22.87
2024-03-02T22:57:07.877Z,23.47
2024-03-02T22:59:36.004Z,22.27
2024-03-02T23:02:04.230Z,22.70
2024-03-02T23:04:34.760Z,23.03
2024-03-02T23:07:02.858Z,21.10
2024-03-02T23:09:30.936Z,23.63
2024-03-02T23:11:59.206Z,23.77
2024-03-02T23:14:27.416Z,20.47
2024-03-02T23:16:55.627Z,25.43
2024-03-02T23:19:24.130Z,26.10
2024-03-02T23:21:55.542Z,25.03
2024-03-02T23:24:23.832Z,23.90
2024-03-02T23:26:53.585Z,24.10
2024-03-02T23:29:22.008Z,28.73
2024-03-02T23:31:50.351Z,22.70
2024-03-02T23:34:18.752Z,27.40
2024-03-02T23:36:46.965Z,22.50
2024-03-02T23:39:37.523Z,25.63
2024-03-02T23:42:04.948Z,23.60
2024-03-02T23:44:33.075Z,23.63
2024-03-02T23:47:01.535Z,22.80
2024-03-02T23:49:29.610Z,26.77
2024-03-02T23:51:57.760Z,22.07
2024-03-02T23:54:27.417Z,26.27
2024-03-02T23:56:56.084Z,22.87
2024-03-02T23:59:24.325Z,22.90
